Richmond, Virginia
Current Conditions -  °F | °C
As of 6:54 PM on Friday 21 Nov 2014 (Local Time) from KRIC Reporting Station
Clear Clear  
Wind Chill:   Ceiling: Unl
Heat Index:   Visibility: 10mi
Dew Point: -11°   Wind: 0mph
Humidity: 42%   Direction: NA
Pressure: 30.53"   Gusts: NA
Location:  37.54°N, 77.43°W
Report Text: KRIC 212354Z 00000KT 10SM CLR 01/M11 A3053 RMK AO2 SLP346 T00061111 10061 21006 51019
Loading
Personal Weather Stations






























Interactive Weather Map New forecast layout! Learn more

10-Day Weather Forecast

Advertisements
Track Severe Weather on mobile